Time;durP1;ratioP1;P1;durP2;ratioP2;P2;SDS_P1;SDS_P2;PMS_P1;PMS_P2;Temp;Humidity;BMP_temperature;BMP_pressure;BME280_temperature;BME280_humidity;BME280_pressure;Samples;Min_cycle;Max_cycle;Signal;HPM_P1;HPM_P2
2022/05/23 00:01:27;;;;;;;3.90;2.80;;;;;;;16.91;62.89;98099.31;2622662;54;20061;-67
2022/05/23 00:04:00;;;;;;;4.93;3.00;;;;;;;16.83;62.92;98093.34;2621669;47;20557;-67
2022/05/23 00:06:30;;;;;;;3.38;2.72;;;;;;;16.73;63.07;98089.75;2621827;47;20034;-67
2022/05/23 00:09:00;;;;;;;4.47;3.00;;;;;;;16.64;63.88;98085.88;2622331;54;20031;-67
2022/05/23 00:11:30;;;;;;;4.05;2.90;;;;;;;16.61;64.02;98092.50;2621343;54;20037;-66
2022/05/23 00:14:00;;;;;;;3.53;2.75;;;;;;;16.62;63.76;98088.81;2621984;54;20559;-66
2022/05/23 00:16:34;;;;;;;5.90;3.47;;;;;;;16.58;63.35;98080.47;2623367;54;20042;-66
2022/05/23 00:19:09;;;;;;;4.53;2.85;;;;;;;16.48;63.74;98080.34;2624669;46;20082;-66
2022/05/23 00:21:40;;;;;;;3.55;2.83;;;;;;;16.52;63.00;98075.31;2624886;39;20420;-66
2022/05/23 00:24:12;;;;;;;5.88;3.30;;;;;;;16.50;63.07;98077.44;2623625;54;20678;-67
2022/05/23 00:26:43;;;;;;;5.25;3.20;;;;;;;16.46;62.56;98057.66;2622809;54;20046;-66
2022/05/23 00:29:13;;;;;;;6.15;3.33;;;;;;;16.39;62.84;98055.16;2623155;54;20539;-67
2022/05/23 00:35:17;;;;;;;5.25;3.22;;;;;;;16.33;62.96;98056.97;2622758;54;20034;-67
2022/05/23 00:37:18;;;;;;;4.18;3.40;;;;;;;16.26;63.15;98040.34;2623080;39;20446;-67
2022/05/23 00:39:47;;;;;;;5.82;3.40;;;;;;;16.27;63.18;98035.81;2623334;54;20027;-67
2022/05/23 00:45:04;;;;;;;4.80;3.00;;;;;;;16.26;63.54;98031.53;2623289;54;20034;-67
2022/05/23 00:47:35;;;;;;;5.93;3.35;;;;;;;16.27;63.34;98019.81;2622126;47;20041;-67
2022/05/23 00:50:12;;;;;;;3.55;3.10;;;;;;;16.31;63.60;98021.72;2621961;47;20030;-67
2022/05/23 00:52:46;;;;;;;6.50;3.30;;;;;;;16.30;63.23;98014.78;2623136;54;20027;-67
2022/05/23 00:55:18;;;;;;;;;;;;;;;16.28;63.28;98005.41;2622326;54;20027;-67
2022/05/23 00:57:50;;;;;;;6.38;3.25;;;;;;;16.22;63.78;97983.22;2622485;47;19939;-66
2022/05/23 01:00:22;;;;;;;5.13;3.22;;;;;;;16.14;64.00;97980.19;2622895;54;20609;-67
2022/05/23 01:02:58;;;;;;;5.38;3.03;;;;;;;16.14;64.03;97981.00;2622383;54;20019;-67
2022/05/23 01:05:32;;;;;;;3.03;2.70;;;;;;;16.25;64.08;97993.41;2621936;47;20019;-68
2022/05/23 01:08:03;;;;;;;4.50;3.10;;;;;;;16.32;63.90;97995.88;2622384;39;20503;-67
2022/05/23 01:10:40;;;;;;;5.30;3.10;;;;;;;16.38;63.70;97986.06;2622376;54;20039;-67
2022/05/23 01:13:10;;;;;;;3.92;3.15;;;;;;;16.40;63.69;97976.75;2622489;54;20039;-68
2022/05/23 01:15:40;;;;;;;3.47;3.13;;;;;;;16.29;63.97;97985.72;2621543;39;20446;-67
2022/05/23 01:18:11;;;;;;;3.95;3.25;;;;;;;16.20;64.56;97989.84;2618597;54;20138;-67
2022/05/23 01:20:45;;;;;;;7.13;3.03;;;;;;;16.15;64.47;97987.94;2619383;54;20038;-67
2022/05/23 01:23:26;;;;;;;4.53;3.33;;;;;;;16.17;64.67;97971.72;2623465;39;20426;-65
2022/05/23 01:26:18;;;;;;;3.75;3.42;;;;;;;16.16;64.87;97964.75;2621902;54;20089;-65
2022/05/23 01:28:56;;;;;;;6.57;3.25;;;;;;;16.17;65.07;97948.50;2622479;39;20871;-66
2022/05/23 01:32:05;;;;;;;4.80;3.10;;;;;;;16.18;64.45;97947.44;2622600;47;20039;-67
2022/05/23 01:34:38;;;;;;;3.47;2.53;;;;;;;16.18;64.50;97947.44;2622544;54;20037;-67
2022/05/23 01:37:12;;;;;;;4.35;3.20;;;;;;;16.22;64.21;97947.75;2621619;54;20034;-67
2022/05/23 01:40:13;;;;;;;6.13;3.05;;;;;;;16.27;64.02;97937.13;2621173;54;20569;-67
2022/05/23 01:42:52;;;;;;;4.72;3.10;;;;;;;16.26;63.88;97928.34;2621892;47;20030;-68
2022/05/23 01:45:26;;;;;;;4.95;3.30;;;;;;;16.25;64.03;97926.75;2621724;47;20027;-66
2022/05/23 01:47:59;;;;;;;4.22;2.88;;;;;;;16.25;63.51;97916.06;2621786;47;20034;-67
2022/05/23 01:50:30;;;;;;;4.43;2.88;;;;;;;16.29;63.85;97913.72;2622793;54;20035;-67
2022/05/23 01:53:06;;;;;;;3.40;2.88;;;;;;;16.37;63.87;97915.09;2621765;47;20027;-67
2022/05/23 01:55:45;;;;;;;3.17;2.88;;;;;;;16.43;63.62;97912.25;2621609;47;20049;-67
2022/05/23 02:01:16;;;;;;;3.55;2.70;;;;;;;16.45;63.09;97915.47;2622158;47;20573;-67
2022/05/23 02:03:56;;;;;;;13.75;10.20;;;;;;;16.43;63.18;97909.56;2622685;47;20515;-66
2022/05/23 02:06:30;;;;;;;4.53;3.17;;;;;;;16.39;62.91;97911.13;2622885;47;20026;-66
2022/05/23 02:09:06;;;;;;;4.78;2.88;;;;;;;16.33;63.53;97912.97;2623755;54;20065;-67
2022/05/23 02:11:44;;;;;;;3.35;3.05;;;;;;;16.27;63.74;97921.94;2622965;47;20564;-66
2022/05/23 02:14:24;;;;;;;4.68;2.72;;;;;;;16.38;63.37;97919.41;2623210;47;20552;-66
2022/05/23 02:16:54;;;;;;;3.53;3.00;;;;;;;16.38;63.52;97909.53;2623618;54;20026;-68
2022/05/23 02:19:27;;;;;;;3.20;2.90;;;;;;;16.45;63.60;97903.97;2623366;46;20030;-67
2022/05/23 02:22:08;;;;;;;4.45;3.15;;;;;;;16.49;63.64;97902.41;2622348;47;20324;-67
2022/05/23 02:24:38;;;;;;;3.95;2.85;;;;;;;16.57;63.39;97902.78;2621776;47;20034;-67
2022/05/23 02:27:08;;;;;;;3.65;3.30;;;;;;;16.60;63.57;97904.13;2620733;54;20034;-66
2022/05/23 02:29:44;;;;;;;4.80;3.05;;;;;;;16.57;63.67;97899.28;2620623;39;20438;-66
2022/05/23 02:32:14;;;;;;;4.10;3.50;;;;;;;16.50;64.13;97896.84;2621187;54;20578;-66
2022/05/23 02:34:44;;;;;;;5.30;3.33;;;;;;;16.40;64.29;97890.59;2620883;54;20037;-67
2022/05/23 02:37:14;;;;;;;7.32;3.42;;;;;;;16.37;64.46;97899.09;2624786;54;20041;-68
2022/05/23 02:39:50;;;;;;;3.55;2.92;;;;;;;16.39;65.17;97899.66;2624087;54;20041;-66
2022/05/23 02:42:22;;;;;;;5.30;3.03;;;;;;;16.54;64.72;97905.94;2623662;54;20034;-67
2022/05/23 02:44:54;;;;;;;5.18;2.92;;;;;;;16.67;64.99;97910.06;2621271;47;20058;-67
2022/05/23 02:47:27;;;;;;;5.57;3.03;;;;;;;16.76;64.20;97908.56;2621205;54;20030;-67
2022/05/23 02:50:00;;;;;;;4.60;2.90;;;;;;;16.74;64.22;97925.91;2622339;47;20037;-67
2022/05/23 02:52:41;;;;;;;5.72;3.28;;;;;;;16.75;64.24;97936.31;2623044;47;20035;-67
2022/05/23 02:55:28;;;;;;;6.72;3.28;;;;;;;16.80;64.10;97944.38;2624297;39;20438;-67
2022/05/23 02:58:00;;;;;;;4.68;3.40;;;;;;;16.87;64.28;97948.72;2623320;54;20034;-67
2022/05/23 03:00:38;;;;;;;6.43;3.42;;;;;;;16.88;64.21;97951.13;2625414;39;20540;-69
2022/05/23 03:03:09;;;;;;;5.75;3.10;;;;;;;16.76;64.53;97975.28;2623767;51;20034;-67
2022/05/23 03:06:01;;;;;;;3.97;3.13;;;;;;;16.64;64.34;98001.28;2623553;54;20030;-67
2022/05/23 03:08:35;;;;;;;4.72;2.97;;;;;;;16.53;65.01;98044.91;2621508;54;20121;-66
2022/05/23 03:11:08;;;;;;;5.68;3.60;;;;;;;16.45;65.38;98090.72;2619542;47;20065;-67
2022/05/23 03:13:38;;;;;;;3.47;2.80;;;;;;;16.27;65.61;98153.97;2619214;54;20142;-67
2022/05/23 03:16:13;;;;;;;3.00;2.65;;;;;;;16.13;65.92;98160.69;2622567;54;20030;-67
2022/05/23 03:18:45;;;;;;;4.32;3.10;;;;;;;16.13;65.74;98144.69;2622297;54;20054;-66
2022/05/23 03:26:58;;;;;;;3.50;2.90;;;;;;;16.20;65.85;98139.97;2622580;54;20038;-66
2022/05/23 03:27:03;;;;;;;4.33;3.60;;;;;;;16.38;65.80;98117.59;2622125;54;20162;-66
2022/05/23 03:29:40;;;;;;;5.85;4.13;;;;;;;16.49;66.53;98111.34;2623856;39;20434;-66
2022/05/23 03:32:13;;;;;;;5.47;3.40;;;;;;;16.47;66.31;98097.41;2622529;54;20037;-68
2022/05/23 03:34:43;;;;;;;4.40;3.47;;;;;;;16.49;66.74;98099.81;2621928;54;20534;-66
2022/05/23 03:37:21;;;;;;;4.82;3.47;;;;;;;16.49;66.90;98102.50;2622260;47;20129;-67
2022/05/23 03:39:51;;;;;;;4.28;3.10;;;;;;;16.52;67.24;98105.47;2621802;54;20027;-66
2022/05/23 03:42:21;;;;;;;4.85;3.20;;;;;;;16.59;67.29;98103.44;2620926;47;20026;-69
2022/05/23 03:44:59;;;;;;;5.43;3.83;;;;;;;16.63;67.34;98094.94;2621951;31;20479;-68
2022/05/23 03:47:41;;;;;;;5.25;3.78;;;;;;;16.44;68.30;98091.75;2620303;54;20518;-68
2022/05/23 03:50:17;;;;;;;7.47;5.03;;;;;;;16.34;69.49;98076.44;2620723;54;20086;-67
2022/05/23 03:52:47;;;;;;;5.60;4.10;;;;;;;16.20;70.55;98048.50;2620757;47;20026;-67
2022/05/23 03:55:26;;;;;;;9.05;4.60;;;;;;;16.06;71.73;98043.56;2620811;47;20029;-67
2022/05/23 03:58:12;;;;;;;7.78;4.10;;;;;;;16.11;71.97;98042.81;2621594;54;20022;-66
2022/05/23 04:00:43;;;;;;;6.30;3.92;;;;;;;16.21;71.63;98040.28;2621077;47;20022;-67
2022/05/23 04:03:17;;;;;;;7.13;4.00;;;;;;;16.16;71.54;98042.88;2620473;54;20018;-67
2022/05/23 04:05:47;;;;;;;4.90;4.03;;;;;;;16.17;72.11;98038.38;2620334;54;20033;-67
2022/05/23 04:08:26;;;;;;;7.95;3.83;;;;;;;16.28;72.35;98032.88;2620116;47;20033;-67
2022/05/23 04:11:00;;;;;;;9.15;4.40;;;;;;;16.32;71.35;98033.19;2619755;54;20038;-67
2022/05/23 04:13:29;;;;;;;5.20;4.65;;;;;;;16.28;71.73;98024.88;2619680;51;20038;-66
2022/05/23 04:15:59;;;;;;;7.45;4.75;;;;;;;16.16;72.38;98007.41;2619957;54;20032;-67
2022/05/23 04:18:36;;;;;;;5.68;5.00;;;;;;;16.06;73.12;97990.22;2620321;54;20030;-67
2022/05/23 04:21:07;;;;;;;10.20;5.22;;;;;;;15.97;73.62;97969.59;2620611;54;20057;-67
2022/05/23 04:23:40;;;;;;;7.13;4.90;;;;;;;15.88;73.79;97960.38;2620179;39;20430;-67
2022/05/23 04:26:09;;;;;;;7.10;4.70;;;;;;;15.76;74.25;97947.22;2619783;54;20057;-67
2022/05/23 04:28:42;;;;;;;5.45;4.38;;;;;;;15.72;75.15;97919.44;2619608;39;20503;-67
2022/05/23 04:31:12;;;;;;;7.88;4.85;;;;;;;15.57;75.46;97880.06;2619105;47;20040;-66
2022/05/23 04:37:00;;;;;;;5.18;4.30;;;;;;;15.38;76.58;97844.91;2619496;47;20037;-67
2022/05/23 04:39:39;;;;;;;4.40;4.00;;;;;;;15.29;76.57;97827.75;2620085;46;20034;-66
2022/05/23 04:42:10;;;;;;;6.57;3.92;;;;;;;15.22;76.80;97830.59;2619976;47;20026;-67
2022/05/23 04:44:41;;;;;;;5.95;3.95;;;;;;;15.23;77.17;97823.44;2621010;47;20030;-67
2022/05/23 04:50:00;;;;;;;6.73;4.77;;;;;;;15.45;77.13;97840.22;2621144;39;20470;-67
2022/05/23 04:52:57;;;;;;;5.43;3.92;;;;;;;15.43;76.32;97818.38;2622434;54;20299;-68
2022/05/23 04:55:30;;;;;;;9.18;5.65;;;;;;;15.42;76.49;97750.16;2622324;54;20023;-66
2022/05/23 04:58:01;;;;;;;5.07;4.45;;;;;;;15.39;77.18;97692.09;2621334;54;20039;-67
2022/05/23 05:00:31;;;;;;;6.55;4.82;;;;;;;15.37;77.89;97686.19;2619073;54;20041;-67
2022/05/23 05:03:09;;;;;;;5.45;4.45;;;;;;;15.36;77.25;97668.63;2619333;47;20034;-68
2022/05/23 05:05:48;;;;;;;7.50;4.68;;;;;;;15.30;77.60;97667.75;2619190;47;20565;-67
2022/05/23 05:08:18;;;;;;;8.18;5.00;;;;;;;15.25;78.31;97673.03;2619207;47;20131;-68
2022/05/23 05:10:53;;;;;;;4.50;3.92;;;;;;;15.30;78.28;97697.03;2619595;54;20027;-66
2022/05/23 05:13:23;;;;;;;5.10;4.60;;;;;;;15.39;78.39;97715.22;2620653;54;20034;-66
2022/05/23 05:15:54;;;;;;;7.60;5.10;;;;;;;15.44;78.36;97725.97;2620385;54;20175;-67
2022/05/23 05:18:28;;;;;;;9.38;4.97;;;;;;;15.46;78.12;97726.50;2620464;47;20023;-67
2022/05/23 05:21:30;;;;;;;7.10;5.97;;;;;;;15.48;78.16;97721.75;2620572;54;20042;-66
2022/05/23 05:24:18;;;;;;;8.60;5.72;;;;;;;15.57;78.59;97704.25;2621456;54;20050;-66
2022/05/23 05:27:05;;;;;;;6.72;5.20;;;;;;;15.66;78.37;97705.44;2622053;39;20427;-67
2022/05/23 05:29:35;;;;;;;7.95;5.35;;;;;;;15.68;78.15;97710.53;2621285;54;20034;-66
2022/05/23 05:32:11;;;;;;;8.75;4.95;;;;;;;15.74;78.27;97710.28;2621171;54;20038;-66
2022/05/23 05:34:46;;;;;;;7.75;4.68;;;;;;;15.89;78.12;97714.97;2620922;54;20018;-66
2022/05/23 05:37:28;;;;;;;5.55;4.35;;;;;;;15.97;77.30;97701.19;2621499;54;20061;-69
2022/05/23 05:40:02;;;;;;;6.00;4.10;;;;;;;16.06;77.19;97706.84;2622049;54;20090;-66
2022/05/23 05:42:35;;;;;;;;;;;;;;;16.18;76.73;97701.34;2622893;54;20022;-66
2022/05/23 05:45:10;;;;;;;6.65;4.38;;;;;;;16.28;76.20;97699.53;2623597;54;20438;-69
2022/05/23 05:47:45;;;;;;;7.55;6.85;;;;;;;16.40;75.97;97695.88;2622705;47;20035;-68
2022/05/23 05:50:38;;;;;;;3.65;3.35;;;;;;;16.51;75.60;97700.25;2622776;54;20023;-66
2022/05/23 05:53:25;;;;;;;6.15;4.10;;;;;;;16.63;75.51;97695.50;2621981;49;20026;-67
2022/05/23 05:55:59;;;;;;;6.22;4.00;;;;;;;16.72;74.84;97688.63;2622024;54;20090;-67
2022/05/23 05:58:29;;;;;;;5.15;3.95;;;;;;;16.78;74.81;97690.28;2622300;54;20049;-67
2022/05/23 06:01:01;;;;;;;4.32;3.92;;;;;;;16.92;75.22;97697.81;2622385;54;20022;-67
2022/05/23 06:03:40;;;;;;;4.60;3.85;;;;;;;17.05;74.45;97700.00;2621907;54;20037;-68
2022/05/23 06:11:52;;;;;;;9.95;4.07;;;;;;;17.48;73.01;97728.22;2621666;47;20102;-67
2022/05/23 06:14:22;;;;;;;4.88;4.28;;;;;;;17.58;71.68;97730.09;2622092;47;20034;-67
2022/05/23 06:16:53;;;;;;;4.15;3.60;;;;;;;17.60;71.56;97736.00;2621876;47;20652;-67
2022/05/23 06:19:30;;;;;;;3.95;3.55;;;;;;;17.68;71.50;97726.66;2622415;54;20046;-67
2022/05/23 06:22:14;;;;;;;4.97;2.97;;;;;;;17.80;71.05;97736.06;2621271;54;20034;-67
2022/05/23 06:25:00;;;;;;;3.92;2.88;;;;;;;18.03;71.07;97749.97;2619071;54;20081;-67
2022/05/23 06:27:30;;;;;;;5.55;3.35;;;;;;;18.28;70.81;97758.00;2619784;49;20041;-67
2022/05/23 06:30:10;;;;;;;5.03;2.95;;;;;;;18.50;69.86;97759.63;2619975;54;20031;-68
2022/05/23 06:32:45;;;;;;;3.25;2.95;;;;;;;18.69;69.00;97762.53;2619923;47;20035;-67
2022/05/23 06:35:21;;;;;;;3.90;3.08;;;;;;;18.62;68.20;97762.03;2620019;54;20539;-67
2022/05/23 06:37:54;;;;;;;4.88;3.38;;;;;;;18.75;68.59;97769.53;2619788;54;20082;-70
2022/05/23 06:40:45;;;;;;;4.22;2.53;;;;;;;18.93;68.07;97763.56;2620701;54;20569;-67
2022/05/23 06:43:52;;;;;;;4.75;3.05;;;;;;;19.06;68.10;97759.53;2620957;54;20038;-67
2022/05/23 06:46:40;;;;;;;4.55;3.17;;;;;;;19.05;68.02;97755.25;2621287;54;20045;-66
2022/05/23 06:49:24;;;;;;;4.60;3.25;;;;;;;19.04;67.62;97762.47;2622813;54;20033;-67
2022/05/23 06:52:24;;;;;;;5.43;3.05;;;;;;;18.98;67.94;97750.19;2622694;47;20323;-66
2022/05/23 06:55:17;;;;;;;3.92;3.47;;;;;;;19.09;67.71;97766.22;2623117;46;20061;-67
2022/05/23 06:57:52;;;;;;;4.95;3.05;;;;;;;19.16;67.48;97759.50;2622674;54;20095;-66
2022/05/23 07:00:23;;;;;;;4.60;3.47;;;;;;;19.20;67.69;97765.91;2622418;47;20041;-67
2022/05/23 07:03:05;;;;;;;3.75;3.42;;;;;;;19.30;67.32;97752.47;2621977;47;20069;-67
2022/05/23 07:14:15;;;;;;;3.20;2.90;;;;;;;19.55;67.92;97766.81;2619357;54;20041;-68
2022/05/23 07:16:46;;;;;;;;;;;;;;;19.61;67.88;97748.84;2621201;54;20030;-67
2022/05/23 07:19:17;;;;;;;5.45;4.78;;;;;;;19.70;67.00;97745.34;2621035;54;20506;-67
2022/05/23 07:21:59;;;;;;;4.38;3.08;;;;;;;19.59;67.66;97753.69;2622284;47;20032;-68
2022/05/23 07:24:39;;;;;;;3.30;3.00;;;;;;;19.55;67.97;97756.94;2622719;47;20035;-68
2022/05/23 07:27:14;;;;;;;3.22;2.78;;;;;;;19.67;67.15;97753.13;2622477;54;20135;-67
2022/05/23 07:29:47;;;;;;;3.38;3.05;;;;;;;19.84;66.49;97748.22;2622634;47;20027;-67
2022/05/23 07:32:17;;;;;;;21.40;3.30;;;;;;;19.98;67.08;97745.69;2621308;54;20026;-67
2022/05/23 07:34:48;;;;;;;5.93;3.08;;;;;;;20.05;67.12;97730.09;2623342;54;20573;-67
2022/05/23 07:37:17;;;;;;;3.58;2.78;;;;;;;20.06;66.44;97717.50;2624002;47;20090;-68
2022/05/23 07:39:47;;;;;;;4.00;2.80;;;;;;;20.07;66.34;97711.03;2629481;39;20470;-67
2022/05/23 07:42:37;;;;;;;4.88;2.60;;;;;;;20.21;65.62;97694.03;2624823;54;20138;-68
2022/05/23 07:45:12;;;;;;;4.32;3.08;;;;;;;20.29;65.21;97695.28;2624282;39;20274;-68
2022/05/23 07:47:43;;;;;;;4.95;2.40;;;;;;;20.32;64.63;97693.91;2619264;54;20154;-66
2022/05/23 07:50:39;;;;;;;3.13;2.60;;;;;;;20.36;63.61;97697.63;2620086;54;20111;-67
2022/05/23 08:01:40;;;;;;;3.72;2.72;;;;;;;20.38;64.35;97720.44;2620271;54;20090;-68
2022/05/23 08:04:11;;;;;;;3.80;2.88;;;;;;;20.48;64.40;97716.84;2619235;54;20023;-67
2022/05/23 08:06:53;;;;;;;4.38;2.60;;;;;;;20.52;64.13;97717.91;2618950;47;20042;-67
2022/05/23 08:09:24;;;;;;;4.10;2.70;;;;;;;20.47;63.43;97716.03;2619303;47;20061;-67
2022/05/23 08:12:04;;;;;;;5.82;2.90;;;;;;;20.32;63.73;97710.81;2619453;54;20030;-66
2022/05/23 08:14:35;;;;;;;2.92;2.72;;;;;;;20.34;64.46;97694.44;2619691;39;20738;-67
2022/05/23 08:17:16;;;;;;;4.68;2.90;;;;;;;20.34;64.35;97687.19;2618580;47;20030;-67
2022/05/23 08:19:45;;;;;;;6.60;3.33;;;;;;;20.39;64.69;97684.44;2619244;47;20030;-66
2022/05/23 08:22:28;;;;;;;3.40;2.83;;;;;;;20.36;65.55;97682.31;2619145;54;20056;-68
2022/05/23 08:25:21;;;;;;;;;;;;;;;20.36;65.17;97695.75;2619503;47;20037;-67
2022/05/23 08:27:57;;;;;;;5.47;3.13;;;;;;;20.44;64.96;97702.38;2619250;54;19946;-67
2022/05/23 08:30:28;;;;;;;3.78;2.75;;;;;;;20.48;64.56;97698.88;2619063;54;20030;-67
2022/05/23 08:33:11;;;;;;;3.30;2.85;;;;;;;20.53;64.08;97696.16;2620010;39;20458;-67
2022/05/23 08:35:41;;;;;;;4.15;2.90;;;;;;;20.57;64.26;97704.44;2619880;54;20773;-67
2022/05/23 08:38:12;;;;;;;3.97;3.00;;;;;;;20.59;63.95;97718.38;2619339;47;20023;-68
2022/05/23 08:41:05;;;;;;;4.88;2.88;;;;;;;20.76;63.54;97713.38;2619536;39;20443;-67
2022/05/23 08:43:46;;;;;;;2.72;2.53;;;;;;;20.80;62.95;97716.28;2619214;54;20018;-67
2022/05/23 08:46:24;;;;;;;3.72;3.03;;;;;;;20.88;63.08;97723.72;2620023;54;20053;-68
2022/05/23 08:49:07;;;;;;;3.70;2.70;;;;;;;21.02;63.04;97726.50;2620289;31;20520;-67
2022/05/23 08:51:52;;;;;;;2.80;2.60;;;;;;;21.18;63.05;97727.13;2619294;54;20081;-68
2022/05/23 08:54:28;;;;;;;7.15;3.22;;;;;;;21.25;62.64;97723.00;2619523;54;20059;-67
2022/05/23 08:57:25;;;;;;;4.67;2.87;;;;;;;21.31;62.34;97728.31;2620964;39;20430;-68
2022/05/23 09:00:00;;;;;;;4.78;2.88;;;;;;;21.48;61.73;97731.38;2620094;39;20435;-68
2022/05/23 09:02:39;;;;;;;3.42;3.00;;;;;;;21.48;61.47;97731.38;2620114;47;20030;-67
2022/05/23 09:05:32;;;;;;;4.63;3.13;;;;;;;21.61;61.87;97725.25;2619299;54;20026;-67
2022/05/23 09:08:30;;;;;;;4.88;3.17;;;;;;;21.84;61.65;97728.16;2619921;54;20034;-68
2022/05/23 09:11:07;;;;;;;4.88;3.42;;;;;;;21.94;61.14;97728.00;2620537;54;20035;-67
2022/05/23 09:13:41;;;;;;;6.68;3.67;;;;;;;21.98;60.41;97729.81;2624514;46;20533;-67
2022/05/23 09:16:13;;;;;;;8.73;3.63;;;;;;;22.07;60.96;97729.97;2624723;47;20030;-68
2022/05/23 09:18:49;;;;;;;2.67;2.47;;;;;;;22.16;60.63;97717.44;2624770;54;20122;-67
2022/05/23 09:22:12;;;;;;;3.00;2.70;;;;;;;22.27;60.11;97712.72;2624509;54;20085;-68
2022/05/23 09:24:11;;;;;;;4.72;2.70;;;;;;;22.32;60.26;97696.47;2624214;54;20042;-67
2022/05/23 09:26:41;;;;;;;5.97;2.70;;;;;;;22.36;59.71;97689.41;2621046;54;20022;-67
2022/05/23 09:29:11;;;;;;;11.55;3.15;;;;;;;22.43;59.92;97689.81;2623102;54;20034;-67
2022/05/23 09:31:50;;;;;;;4.57;2.40;;;;;;;22.52;59.20;97679.16;2625334;54;20045;-68
2022/05/23 09:34:33;;;;;;;5.47;2.70;;;;;;;22.70;58.53;97674.81;2625196;47;20027;-70
2022/05/23 09:37:17;;;;;;;4.70;2.88;;;;;;;22.89;57.80;97677.38;2625349;39;20443;-69
2022/05/23 09:39:54;;;;;;;6.93;2.78;;;;;;;23.09;57.56;97678.91;2626490;54;20429;-67
2022/05/23 09:48:09;;;;;;;5.75;2.95;;;;;;;23.56;56.57;97664.13;2625359;54;20038;-68
2022/05/23 09:50:42;;;;;;;2.88;2.63;;;;;;;23.72;56.59;97654.59;2624476;54;20034;-68
2022/05/23 09:53:31;;;;;;;5.80;2.42;;;;;;;23.83;55.62;97657.84;2624905;54;20038;-67
2022/05/23 09:56:29;;;;;;;13.57;2.88;;;;;;;23.94;55.86;97658.41;2625224;54;20034;-68
2022/05/23 09:59:02;;;;;;;4.65;2.67;;;;;;;24.12;55.41;97649.31;2625190;54;20027;-67
2022/05/23 10:01:42;;;;;;;4.25;2.95;;;;;;;24.04;54.27;97647.34;2625568;54;20036;-66
2022/05/23 10:04:18;;;;;;;4.20;2.90;;;;;;;24.10;54.48;97639.94;2624563;54;20018;-68
2022/05/23 10:06:50;;;;;;;4.00;3.00;;;;;;;24.10;54.42;97632.63;2623133;54;20625;-68
2022/05/23 10:09:33;;;;;;;8.52;6.47;;;;;;;24.09;54.64;97619.44;2623494;54;20085;-68
2022/05/23 10:12:40;;;;;;;5.43;2.78;;;;;;;24.00;54.28;97603.19;2626829;47;20038;-67
2022/05/23 10:15:24;;;;;;;4.35;2.83;;;;;;;24.01;54.54;97602.09;2626870;54;20038;-67
2022/05/23 10:18:03;;;;;;;6.10;3.70;;;;;;;24.09;54.14;97624.84;2626320;54;20039;-67
2022/05/23 10:20:37;;;;;;;5.18;3.70;;;;;;;24.09;54.07;97595.94;2625649;54;20038;-67
2022/05/23 10:23:09;;;;;;;5.05;2.88;;;;;;;24.15;54.21;97591.19;2625569;54;20041;-67
2022/05/23 10:25:47;;;;;;;4.35;3.65;;;;;;;24.27;53.24;97582.53;2627716;47;20027;-68
2022/05/23 10:28:22;;;;;;;5.78;3.40;;;;;;;24.27;53.07;97587.91;2628306;54;20086;-66
2022/05/23 10:31:01;;;;;;;4.55;3.35;;;;;;;24.27;52.98;97588.72;2628181;54;20041;-68
2022/05/23 10:33:39;;;;;;;4.10;3.25;;;;;;;24.32;53.00;97595.88;2630697;54;20031;-68
2022/05/23 10:36:13;;;;;;;5.45;2.88;;;;;;;24.31;52.82;97605.88;2628842;54;20035;-68
2022/05/23 10:44:28;;;;;;;4.07;2.90;;;;;;;24.37;52.69;97598.44;2625290;54;20034;-67
2022/05/23 10:47:11;;;;;;;3.50;3.20;;;;;;;24.39;52.69;97591.66;2623364;54;20580;-66
2022/05/23 10:49:58;;;;;;;7.60;4.28;;;;;;;24.34;53.11;97589.06;2624139;54;20118;-67
2022/05/23 10:52:37;;;;;;;4.88;3.55;;;;;;;24.41;52.86;97592.16;2621623;51;20085;-67
2022/05/23 10:55:20;;;;;;;2.97;2.65;;;;;;;24.44;52.06;97591.50;2620637;54;20025;-68
2022/05/23 10:58:05;;;;;;;5.97;4.38;;;;;;;24.54;52.33;97587.75;2620020;47;20041;-67
2022/05/23 11:00:44;;;;;;;4.47;2.80;;;;;;;24.54;52.86;97584.25;2621383;54;20026;-68
2022/05/23 11:03:23;;;;;;;5.97;4.05;;;;;;;24.57;52.61;97576.28;2623434;51;20114;-68
2022/05/23 11:06:01;;;;;;;6.35;3.22;;;;;;;24.39;52.54;97561.94;2623375;51;20530;-68
2022/05/23 11:09:00;;;;;;;7.03;3.28;;;;;;;24.42;52.53;97557.84;2626588;39;20433;-69
2022/05/23 11:11:46;;;;;;;5.47;3.20;;;;;;;24.29;52.66;97558.69;2623726;47;20530;-69
2022/05/23 11:14:29;;;;;;;3.65;2.70;;;;;;;24.35;52.65;97570.97;2623095;54;20041;-68
2022/05/23 11:17:10;;;;;;;7.03;3.10;;;;;;;24.25;52.90;97579.31;2623114;54;20026;-68
2022/05/23 11:19:58;;;;;;;4.25;2.70;;;;;;;24.19;53.26;97584.06;2621032;54;20077;-69
2022/05/23 11:22:33;;;;;;;6.75;3.25;;;;;;;24.11;53.52;97593.72;2619189;54;20030;-67
2022/05/23 11:25:20;;;;;;;5.03;3.08;;;;;;;24.16;53.94;97590.09;2618700;47;20054;-66
2022/05/23 11:36:09;;;;;;;3.65;2.97;;;;;;;24.41;55.68;97565.16;2620697;54;20030;-68
2022/05/23 11:38:45;;;;;;;3.63;3.00;;;;;;;24.44;56.09;97579.91;2620882;39;20443;-68
2022/05/23 11:41:32;;;;;;;4.05;3.00;;;;;;;24.37;55.93;97582.22;2620221;54;20023;-68
2022/05/23 11:44:05;;;;;;;5.68;2.95;;;;;;;24.13;55.70;97572.63;2620150;54;20030;-70
2022/05/23 11:47:08;;;;;;;6.22;2.80;;;;;;;24.18;56.10;97572.47;2621209;54;20030;-68
2022/05/23 11:49:43;;;;;;;6.27;3.47;;;;;;;24.17;55.80;97581.69;2620199;39;20427;-69
2022/05/23 11:52:26;;;;;;;6.63;4.38;;;;;;;24.09;55.10;97584.34;2618917;47;20034;-68
2022/05/23 11:54:56;;;;;;;6.10;3.40;;;;;;;24.09;55.48;97581.66;2618961;47;20050;-67
2022/05/23 11:57:38;;;;;;;10.25;3.67;;;;;;;24.07;55.33;97573.06;2619337;54;20022;-69
2022/05/23 12:00:25;;;;;;;7.20;3.42;;;;;;;24.09;55.20;97562.75;2619059;54;20031;-68
2022/05/23 12:03:17;;;;;;;8.13;3.53;;;;;;;24.19;55.13;97555.16;2618868;47;20118;-68
2022/05/23 12:05:47;;;;;;;7.00;4.35;;;;;;;24.10;55.30;97550.84;2619171;54;20026;-69
2022/05/23 12:08:33;;;;;;;24.00;4.40;;;;;;;24.13;55.59;97540.22;2618721;54;20118;-68
2022/05/23 12:11:05;;;;;;;8.30;3.97;;;;;;;24.21;54.31;97552.97;2619408;54;20030;-67
2022/05/23 12:13:48;;;;;;;5.75;3.60;;;;;;;24.09;54.43;97547.34;2619412;54;20035;-67
2022/05/23 12:16:41;;;;;;;5.90;3.58;;;;;;;23.92;54.57;97542.69;2619281;54;20049;-68
2022/05/23 12:19:51;;;;;;;8.35;3.83;;;;;;;23.82;54.41;97529.44;2619165;54;20081;-69
2022/05/23 12:22:33;;;;;;;6.95;3.60;;;;;;;23.76;55.18;97529.88;2619034;47;20027;-69
2022/05/23 12:25:23;;;;;;;7.82;3.53;;;;;;;23.71;55.36;97518.09;2619139;54;20049;-67
2022/05/23 12:28:14;;;;;;;7.95;3.95;;;;;;;23.84;54.92;97494.84;2618916;54;20047;-68
2022/05/23 12:31:02;;;;;;;9.68;4.38;;;;;;;23.86;54.80;97494.53;2619242;54;20570;-68
2022/05/23 12:33:32;;;;;;;5.88;3.80;;;;;;;23.85;55.09;97504.53;2619248;54;20593;-67
2022/05/23 12:36:13;;;;;;;8.98;4.65;;;;;;;23.90;54.56;97517.09;2618865;54;20025;-68
2022/05/23 12:39:03;;;;;;;5.13;4.65;;;;;;;23.91;54.65;97521.38;2619178;54;20046;-68
2022/05/23 12:41:51;;;;;;;8.60;5.40;;;;;;;23.96;54.71;97505.03;2619652;39;20541;-68
2022/05/23 12:44:50;;;;;;;6.30;3.53;;;;;;;24.18;54.00;97488.00;2618859;54;20578;-68
2022/05/23 12:47:42;;;;;;;3.75;3.35;;;;;;;24.28;53.87;97479.59;2618696;47;20057;-68
2022/05/23 12:50:25;;;;;;;7.50;3.35;;;;;;;24.49;53.39;97476.31;2619219;54;20035;-68
2022/05/23 12:53:21;;;;;;;6.82;3.42;;;;;;;24.64;52.85;97467.78;2619384;54;20072;-67
2022/05/23 12:56:04;;;;;;;10.63;3.53;;;;;;;24.80;52.76;97470.81;2620220;47;20046;-69
2022/05/23 12:58:46;;;;;;;;;;;;;;;24.88;52.00;97465.41;2623743;54;20053;-69
2022/05/23 13:01:21;;;;;;;11.98;3.88;;;;;;;24.90;51.73;97468.59;2623951;54;19947;-69
2022/05/23 13:04:06;;;;;;;6.43;3.75;;;;;;;25.07;51.30;97469.69;2623740;54;20042;-69
2022/05/23 13:06:42;;;;;;;8.05;3.67;;;;;;;24.98;50.82;97463.47;2622931;47;20050;-70
2022/05/23 13:09:20;;;;;;;6.15;3.25;;;;;;;25.00;50.82;97463.97;2622743;54;20554;-67
2022/05/23 13:11:54;;;;;;;5.18;3.55;;;;;;;25.16;50.77;97454.28;2622629;54;20023;-68
2022/05/23 13:14:24;;;;;;;8.52;3.53;;;;;;;25.43;50.36;97453.09;2622954;54;20038;-68
2022/05/23 13:16:56;;;;;;;7.75;3.45;;;;;;;25.57;49.42;97431.28;2622634;54;20039;-68
2022/05/23 13:22:13;;;;;;;7.95;3.58;;;;;;;26.03;48.29;97418.84;2619145;54;20030;-68
2022/05/23 13:24:56;;;;;;;6.30;3.83;;;;;;;26.19;48.26;97411.75;2618551;54;20038;-68
2022/05/23 13:27:37;;;;;;;6.57;3.55;;;;;;;26.46;48.29;97401.56;2618561;54;20042;-67